sensor_id;sensor_type;location;lat;lon;timestamp;pressure;altitude;pressure_sealevel;temperature;humidity
36828;BME280;22766;48.042;11.192;2022-07-31T00:02:06;95396.53;;;16.87;100.00
36828;BME280;22766;48.042;11.192;2022-07-31T00:04:33;95399.00;;;16.95;100.00
36828;BME280;22766;48.042;11.192;2022-07-31T00:07:00;95398.75;;;16.90;100.00
36828;BME280;22766;48.042;11.192;2022-07-31T00:09:27;95396.16;;;16.90;100.00
36828;BME280;22766;48.042;11.192;2022-07-31T00:12:15;95401.38;;;16.90;100.00
36828;BME280;22766;48.042;11.192;2022-07-31T00:14:42;95390.69;;;16.85;100.00
36828;BME280;22766;48.042;11.192;2022-07-31T00:17:09;95387.78;;;16.79;100.00
36828;BME280;22766;48.042;11.192;2022-07-31T00:19:36;95385.44;;;16.70;100.00
36828;BME280;22766;48.042;11.192;2022-07-31T00:22:02;95387.25;;;16.69;100.00
36828;BME280;22766;48.042;11.192;2022-07-31T00:24:29;95388.50;;;16.59;100.00
36828;BME280;22766;48.042;11.192;2022-07-31T00:26:56;95385.34;;;16.49;100.00
36828;BME280;22766;48.042;11.192;2022-07-31T00:29:22;95391.41;;;16.41;100.00
36828;BME280;22766;48.042;11.192;2022-07-31T00:31:49;95386.19;;;16.27;100.00
36828;BME280;22766;48.042;11.192;2022-07-31T00:34:16;95385.66;;;16.31;100.00
36828;BME280;22766;48.042;11.192;2022-07-31T00:36:43;95384.22;;;16.29;100.00
36828;BME280;22766;48.042;11.192;2022-07-31T00:39:10;95383.31;;;16.22;100.00
36828;BME280;22766;48.042;11.192;2022-07-31T00:41:41;95375.94;;;16.11;100.00
36828;BME280;22766;48.042;11.192;2022-07-31T00:44:09;95381.38;;;16.01;100.00
36828;BME280;22766;48.042;11.192;2022-07-31T00:46:38;95374.06;;;15.82;100.00
36828;BME280;22766;48.042;11.192;2022-07-31T00:49:06;95374.22;;;15.80;100.00
36828;BME280;22766;48.042;11.192;2022-07-31T00:51:36;95372.59;;;15.79;100.00
36828;BME280;22766;48.042;11.192;2022-07-31T00:54:04;95380.69;;;15.84;100.00
36828;BME280;22766;48.042;11.192;2022-07-31T00:56:31;95376.31;;;15.85;100.00
36828;BME280;22766;48.042;11.192;2022-07-31T00:58:58;95375.34;;;15.86;100.00
36828;BME280;22766;48.042;11.192;2022-07-31T01:01:25;95378.03;;;15.70;100.00
36828;BME280;22766;48.042;11.192;2022-07-31T01:03:53;95379.31;;;15.74;100.00
36828;BME280;22766;48.042;11.192;2022-07-31T01:06:20;95374.06;;;15.82;100.00
36828;BME280;22766;48.042;11.192;2022-07-31T01:08:47;95378.91;;;15.85;100.00
36828;BME280;22766;48.042;11.192;2022-07-31T01:11:36;95386.34;;;15.88;100.00
36828;BME280;22766;48.042;11.192;2022-07-31T01:14:07;95377.31;;;15.84;100.00
36828;BME280;22766;48.042;11.192;2022-07-31T01:16:38;95373.94;;;15.75;100.00
36828;BME280;22766;48.042;11.192;2022-07-31T01:19:45;95377.59;;;15.66;100.00
36828;BME280;22766;48.042;11.192;2022-07-31T01:28:17;95377.63;;;15.28;100.00
36828;BME280;22766;48.042;11.192;2022-07-31T01:30:51;95378.84;;;15.17;100.00
36828;BME280;22766;48.042;11.192;2022-07-31T01:34:06;95382.63;;;15.07;100.00
36828;BME280;22766;48.042;11.192;2022-07-31T01:36:36;95383.47;;;14.99;100.00
36828;BME280;22766;48.042;11.192;2022-07-31T01:39:05;95373.41;;;14.96;100.00
36828;BME280;22766;48.042;11.192;2022-07-31T01:41:37;95372.47;;;14.89;100.00
36828;BME280;22766;48.042;11.192;2022-07-31T01:44:06;95379.13;;;14.91;100.00
36828;BME280;22766;48.042;11.192;2022-07-31T01:46:40;95377.34;;;14.92;100.00
36828;BME280;22766;48.042;11.192;2022-07-31T01:49:10;95370.84;;;14.88;100.00
36828;BME280;22766;48.042;11.192;2022-07-31T01:51:40;95367.50;;;14.79;100.00
36828;BME280;22766;48.042;11.192;2022-07-31T01:54:09;95360.81;;;14.77;100.00
36828;BME280;22766;48.042;11.192;2022-07-31T01:56:37;95372.53;;;14.73;100.00
36828;BME280;22766;48.042;11.192;2022-07-31T01:59:06;95361.31;;;14.72;100.00
36828;BME280;22766;48.042;11.192;2022-07-31T02:02:04;95369.59;;;14.76;100.00
36828;BME280;22766;48.042;11.192;2022-07-31T02:04:35;95371.22;;;14.77;100.00
36828;BME280;22766;48.042;11.192;2022-07-31T02:07:04;95368.81;;;14.75;100.00
36828;BME280;22766;48.042;11.192;2022-07-31T02:09:33;95372.72;;;14.71;100.00
36828;BME280;22766;48.042;11.192;2022-07-31T02:12:01;95368.81;;;14.75;100.00
36828;BME280;22766;48.042;11.192;2022-07-31T02:14:35;95361.13;;;14.82;100.00
36828;BME280;22766;48.042;11.192;2022-07-31T02:17:02;95364.03;;;14.87;100.00
36828;BME280;22766;48.042;11.192;2022-07-31T02:19:57;95372.81;;;14.86;100.00
36828;BME280;22766;48.042;11.192;2022-07-31T02:22:26;95374.13;;;14.82;100.00
36828;BME280;22766;48.042;11.192;2022-07-31T02:24:54;95371.38;;;14.83;100.00
36828;BME280;22766;48.042;11.192;2022-07-31T02:27:22;95365.53;;;14.81;100.00
36828;BME280;22766;48.042;11.192;2022-07-31T02:30:11;95369.56;;;14.84;100.00
36828;BME280;22766;48.042;11.192;2022-07-31T02:32:39;95370.56;;;14.83;100.00
36828;BME280;22766;48.042;11.192;2022-07-31T02:35:07;95368.59;;;14.85;100.00
36828;BME280;22766;48.042;11.192;2022-07-31T02:37:36;95364.19;;;14.85;100.00
36828;BME280;22766;48.042;11.192;2022-07-31T02:40:04;95373.41;;;14.96;100.00
36828;BME280;22766;48.042;11.192;2022-07-31T02:42:32;95373.88;;;14.99;100.00
36828;BME280;22766;48.042;11.192;2022-07-31T02:45:00;95369.78;;;15.05;100.00
36828;BME280;22766;48.042;11.192;2022-07-31T02:47:28;95363.63;;;15.06;100.00
36828;BME280;22766;48.042;11.192;2022-07-31T02:49:58;95367.34;;;15.12;100.00
36828;BME280;22766;48.042;11.192;2022-07-31T02:52:25;95366.31;;;15.21;100.00
36828;BME280;22766;48.042;11.192;2022-07-31T02:54:52;95366.91;;;15.31;100.00
36828;BME280;22766;48.042;11.192;2022-07-31T02:57:19;95370.94;;;15.33;100.00
36828;BME280;22766;48.042;11.192;2022-07-31T02:59:46;95369.31;;;15.32;100.00
36828;BME280;22766;48.042;11.192;2022-07-31T03:02:13;95362.22;;;15.26;100.00
36828;BME280;22766;48.042;11.192;2022-07-31T03:04:42;95364.44;;;15.29;100.00
36828;BME280;22766;48.042;11.192;2022-07-31T03:07:09;95362.34;;;15.33;100.00
36828;BME280;22766;48.042;11.192;2022-07-31T03:09:36;95359.31;;;15.21;100.00
36828;BME280;22766;48.042;11.192;2022-07-31T03:12:23;95357.69;;;15.20;100.00
36828;BME280;22766;48.042;11.192;2022-07-31T03:14:51;95361.56;;;15.24;100.00
36828;BME280;22766;48.042;11.192;2022-07-31T03:17:22;95362.22;;;15.26;100.00
36828;BME280;22766;48.042;11.192;2022-07-31T03:20:04;95369.19;;;15.26;100.00
36828;BME280;22766;48.042;11.192;2022-07-31T03:22:32;95364.00;;;15.26;100.00
36828;BME280;22766;48.042;11.192;2022-07-31T03:25:00;95364.16;;;15.24;100.00
36828;BME280;22766;48.042;11.192;2022-07-31T03:27:28;95370.47;;;15.30;100.00
36828;BME280;22766;48.042;11.192;2022-07-31T03:29:55;95369.19;;;15.26;100.00
36828;BME280;22766;48.042;11.192;2022-07-31T03:32:22;95367.75;;;15.23;100.00
36828;BME280;22766;48.042;11.192;2022-07-31T03:34:49;95371.28;;;15.30;100.00
36828;BME280;22766;48.042;11.192;2022-07-31T03:37:15;95372.56;;;15.34;100.00
36828;BME280;22766;48.042;11.192;2022-07-31T03:39:42;95367.00;;;15.37;100.00
36828;BME280;22766;48.042;11.192;2022-07-31T03:42:12;95368.97;;;15.43;100.00
36828;BME280;22766;48.042;11.192;2022-07-31T03:44:45;95373.53;;;15.41;100.00
36828;BME280;22766;48.042;11.192;2022-07-31T03:47:13;95365.41;;;15.36;100.00
36828;BME280;22766;48.042;11.192;2022-07-31T03:49:42;95369.97;;;15.34;100.00
36828;BME280;22766;48.042;11.192;2022-07-31T03:52:09;95367.81;;;15.38;100.00
36828;BME280;22766;48.042;11.192;2022-07-31T03:54:39;95370.91;;;15.41;100.00
36828;BME280;22766;48.042;11.192;2022-07-31T03:57:20;95363.94;;;15.42;100.00
36828;BME280;22766;48.042;11.192;2022-07-31T03:59:52;95366.03;;;15.38;100.00
36828;BME280;22766;48.042;11.192;2022-07-31T04:02:27;95364.22;;;15.39;100.00
36828;BME280;22766;48.042;11.192;2022-07-31T04:05:03;95365.72;;;15.41;100.00
36828;BME280;22766;48.042;11.192;2022-07-31T04:07:35;95366.63;;;15.48;100.00
36828;BME280;22766;48.042;11.192;2022-07-31T04:10:02;95369.97;;;15.65;100.00
36828;BME280;22766;48.042;11.192;2022-07-31T04:12:29;95365.03;;;15.70;100.00
36828;BME280;22766;48.042;11.192;2022-07-31T04:14:55;95366.81;;;15.69;100.00
36828;BME280;22766;48.042;11.192;2022-07-31T04:17:22;95371.16;;;15.77;100.00
36828;BME280;22766;48.042;11.192;2022-07-31T04:19:49;95369.00;;;15.80;100.00
36828;BME280;22766;48.042;11.192;2022-07-31T04:22:16;95371.78;;;15.79;100.00
36828;BME280;22766;48.042;11.192;2022-07-31T04:24:42;95373.06;;;15.83;100.00
36828;BME280;22766;48.042;11.192;2022-07-31T04:27:30;95376.13;;;15.86;100.00
36828;BME280;22766;48.042;11.192;2022-07-31T04:29:57;95380.69;;;15.84;100.00
36828;BME280;22766;48.042;11.192;2022-07-31T04:32:23;95387.16;;;15.88;100.00
36828;BME280;22766;48.042;11.192;2022-07-31T04:34:53;95387.00;;;15.90;100.00
36828;BME280;22766;48.042;11.192;2022-07-31T04:37:20;95388.81;;;15.89;100.00
36828;BME280;22766;48.042;11.192;2022-07-31T04:39:47;95392.19;;;15.90;100.00
36828;BME280;22766;48.042;11.192;2022-07-31T04:42:13;95392.03;;;15.92;100.00
36828;BME280;22766;48.042;11.192;2022-07-31T04:44:40;95399.03;;;15.91;100.00
36828;BME280;22766;48.042;11.192;2022-07-31T04:47:07;95392.50;;;15.95;100.00
36828;BME280;22766;48.042;11.192;2022-07-31T04:49:40;95388.44;;;15.93;100.00
36828;BME280;22766;48.042;11.192;2022-07-31T04:52:07;95394.81;;;15.90;100.00
36828;BME280;22766;48.042;11.192;2022-07-31T04:54:36;95386.53;;;15.86;100.00
36828;BME280;22766;48.042;11.192;2022-07-31T04:57:06;95387.41;;;15.79;100.00
36828;BME280;22766;48.042;11.192;2022-07-31T04:59:33;95391.81;;;15.78;100.00
36828;BME280;22766;48.042;11.192;2022-07-31T05:02:19;95392.16;;;15.75;100.00
36828;BME280;22766;48.042;11.192;2022-07-31T05:04:46;95388.75;;;15.75;100.00
36828;BME280;22766;48.042;11.192;2022-07-31T05:07:25;95397.38;;;15.75;100.00
36828;BME280;22766;48.042;11.192;2022-07-31T05:09:55;95395.75;;;15.74;100.00
36828;BME280;22766;48.042;11.192;2022-07-31T05:12:22;95387.78;;;15.76;100.00
36828;BME280;22766;48.042;11.192;2022-07-31T05:14:49;95386.25;;;15.81;100.00
36828;BME280;22766;48.042;11.192;2022-07-31T05:17:15;95394.00;;;15.89;100.00
36828;BME280;22766;48.042;11.192;2022-07-31T05:20:11;95388.22;;;16.02;100.00
36828;BME280;22766;48.042;11.192;2022-07-31T05:23:01;95388.72;;;16.20;100.00
36828;BME280;22766;48.042;11.192;2022-07-31T05:25:52;95381.34;;;16.38;100.00
36828;BME280;22766;48.042;11.192;2022-07-31T05:28:18;95386.78;;;16.51;100.00
36828;BME280;22766;48.042;11.192;2022-07-31T05:30:56;95383.84;;;16.69;100.00
36828;BME280;22766;48.042;11.192;2022-07-31T05:33:23;95390.69;;;16.85;100.00
36828;BME280;22766;48.042;11.192;2022-07-31T05:35:49;95386.88;;;17.02;100.00
36828;BME280;22766;48.042;11.192;2022-07-31T05:38:16;95389.28;;;17.18;100.00
36828;BME280;22766;48.042;11.192;2022-07-31T05:41:03;95386.56;;;17.26;100.00
36828;BME280;22766;48.042;11.192;2022-07-31T05:43:41;95392.66;;;17.33;100.00
36828;BME280;22766;48.042;11.192;2022-07-31T05:46:14;95392.56;;;17.41;100.00
36828;BME280;22766;48.042;11.192;2022-07-31T05:48:43;95390.94;;;17.54;100.00
36828;BME280;22766;48.042;11.192;2022-07-31T05:51:11;95392.81;;;17.60;100.00
36828;BME280;22766;48.042;11.192;2022-07-31T05:53:39;95391.69;;;17.69;100.00
36828;BME280;22766;48.042;11.192;2022-07-31T05:56:29;95390.84;;;17.84;100.00
36828;BME280;22766;48.042;11.192;2022-07-31T05:58:58;95391.88;;;17.89;100.00
36828;BME280;22766;48.042;11.192;2022-07-31T06:01:24;95396.34;;;17.95;100.00
36828;BME280;22766;48.042;11.192;2022-07-31T06:03:52;95394.63;;;18.02;100.00
36828;BME280;22766;48.042;11.192;2022-07-31T06:06:21;95399.84;;;18.02;100.00
36828;BME280;22766;48.042;11.192;2022-07-31T06:08:48;95401.13;;;18.13;100.00
36828;BME280;22766;48.042;11.192;2022-07-31T06:11:15;95395.91;;;18.13;100.00
36828;BME280;22766;48.042;11.192;2022-07-31T06:13:41;95395.97;;;18.19;100.00
36828;BME280;22766;48.042;11.192;2022-07-31T06:16:25;95402.03;;;18.26;100.00
36828;BME280;22766;48.042;11.192;2022-07-31T06:18:52;95407.75;;;18.36;100.00
36828;BME280;22766;48.042;11.192;2022-07-31T06:21:19;95403.63;;;18.48;100.00
36828;BME280;22766;48.042;11.192;2022-07-31T06:23:44;95402.88;;;18.54;100.00
36828;BME280;22766;48.042;11.192;2022-07-31T06:26:20;95397.91;;;18.59;100.00
36828;BME280;22766;48.042;11.192;2022-07-31T06:28:49;95403.94;;;18.60;100.00
36828;BME280;22766;48.042;11.192;2022-07-31T06:31:19;95407.78;;;18.64;100.00
36828;BME280;22766;48.042;11.192;2022-07-31T06:33:46;95402.19;;;18.74;100.00
36828;BME280;22766;48.042;11.192;2022-07-31T06:36:16;95402.47;;;18.79;100.00
36828;BME280;22766;48.042;11.192;2022-07-31T06:38:54;95407.09;;;18.83;100.00
36828;BME280;22766;48.042;11.192;2022-07-31T06:41:39;95406.91;;;18.85;100.00
36828;BME280;22766;48.042;11.192;2022-07-31T06:44:42;95402.31;;;18.93;100.00
36828;BME280;22766;48.042;11.192;2022-07-31T06:47:44;95402.31;;;18.93;100.00
36828;BME280;22766;48.042;11.192;2022-07-31T06:50:34;95401.97;;;19.03;100.00
36828;BME280;22766;48.042;11.192;2022-07-31T06:53:22;95400.59;;;19.07;100.00
36828;BME280;22766;48.042;11.192;2022-07-31T06:55:49;95410.03;;;19.08;100.00
36828;BME280;22766;48.042;11.192;2022-07-31T06:58:16;95412.66;;;19.01;100.00
36828;BME280;22766;48.042;11.192;2022-07-31T07:00:43;95407.00;;;19.04;100.00
36828;BME280;22766;48.042;11.192;2022-07-31T07:03:10;95411.44;;;19.04;100.00
36828;BME280;22766;48.042;11.192;2022-07-31T07:05:36;95411.00;;;19.00;100.00
36828;BME280;22766;48.042;11.192;2022-07-31T07:08:03;95413.06;;;19.11;100.00
36828;BME280;22766;48.042;11.192;2022-07-31T07:10:31;95410.88;;;19.15;100.00
36828;BME280;22766;48.042;11.192;2022-07-31T07:12:58;95405.88;;;19.20;100.00
36828;BME280;22766;48.042;11.192;2022-07-31T07:15:28;95410.63;;;19.37;100.00
36828;BME280;22766;48.042;11.192;2022-07-31T07:17:54;95410.84;;;19.42;99.12
36828;BME280;22766;48.042;11.192;2022-07-31T07:20:32;95408.00;;;19.44;96.66
36828;BME280;22766;48.042;11.192;2022-07-31T07:22:59;95405.81;;;19.47;96.06
36828;BME280;22766;48.042;11.192;2022-07-31T07:25:35;95406.22;;;19.44;96.41
36828;BME280;22766;48.042;11.192;2022-07-31T07:28:02;95406.59;;;19.41;95.56
36828;BME280;22766;48.042;11.192;2022-07-31T07:30:29;95405.84;;;19.54;95.14
36828;BME280;22766;48.042;11.192;2022-07-31T07:32:58;95395.16;;;19.55;95.32
36828;BME280;22766;48.042;11.192;2022-07-31T07:35:27;95401.03;;;19.71;97.26
36828;BME280;22766;48.042;11.192;2022-07-31T07:38:01;95399.66;;;19.88;96.19
36828;BME280;22766;48.042;11.192;2022-07-31T07:40:28;95403.06;;;19.82;92.08
36828;BME280;22766;48.042;11.192;2022-07-31T07:42:55;95398.88;;;19.94;92.61
36828;BME280;22766;48.042;11.192;2022-07-31T07:45:28;95396.25;;;20.07;92.21
36828;BME280;22766;48.042;11.192;2022-07-31T07:47:56;95399.50;;;20.15;91.25
36828;BME280;22766;48.042;11.192;2022-07-31T07:50:54;95394.28;;;20.35;90.43
36828;BME280;22766;48.042;11.192;2022-07-31T07:53:40;95395.69;;;20.37;88.69
36828;BME280;22766;48.042;11.192;2022-07-31T07:56:45;95389.66;;;20.30;88.23
36828;BME280;22766;48.042;11.192;2022-07-31T07:59:21;95393.28;;;20.36;87.99
36828;BME280;22766;48.042;11.192;2022-07-31T08:02:14;95393.91;;;20.38;90.44
36828;BME280;22766;48.042;11.192;2022-07-31T08:04:41;95395.66;;;20.70;86.23
36828;BME280;22766;48.042;11.192;2022-07-31T08:07:13;95394.41;;;20.99;83.99
36828;BME280;22766;48.042;11.192;2022-07-31T08:09:39;95389.34;;;21.55;82.31
36828;BME280;22766;48.042;11.192;2022-07-31T08:12:39;95389.78;;;22.20;77.04
36828;BME280;22766;48.042;11.192;2022-07-31T08:15:06;95380.13;;;22.14;76.26
36828;BME280;22766;48.042;11.192;2022-07-31T08:17:52;95380.63;;;21.98;74.78
36828;BME280;22766;48.042;11.192;2022-07-31T08:20:20;95380.88;;;21.90;77.62
36828;BME280;22766;48.042;11.192;2022-07-31T08:22:48;95382.75;;;22.14;77.77
36828;BME280;22766;48.042;11.192;2022-07-31T08:25:15;95385.03;;;22.54;77.59
36828;BME280;22766;48.042;11.192;2022-07-31T08:27:43;95371.28;;;22.76;76.27
36828;BME280;22766;48.042;11.192;2022-07-31T08:30:14;95376.22;;;23.09;70.98
36828;BME280;22766;48.042;11.192;2022-07-31T08:32:41;95373.56;;;23.27;69.03
36828;BME280;22766;48.042;11.192;2022-07-31T08:35:30;95372.41;;;23.71;67.95
36828;BME280;22766;48.042;11.192;2022-07-31T08:37:57;95379.09;;;24.03;65.91
36828;BME280;22766;48.042;11.192;2022-07-31T08:40:37;95379.47;;;24.06;64.53
36828;BME280;22766;48.042;11.192;2022-07-31T08:43:10;95381.56;;;24.16;61.67
36828;BME280;22766;48.042;11.192;2022-07-31T08:45:58;95380.63;;;24.34;58.59
36828;BME280;22766;48.042;11.192;2022-07-31T08:48:31;95381.78;;;24.38;58.35
36828;BME280;22766;48.042;11.192;2022-07-31T08:51:01;95379.84;;;24.56;56.32
36828;BME280;22766;48.042;11.192;2022-07-31T08:54:06;95382.41;;;24.63;61.92
36828;BME280;22766;48.042;11.192;2022-07-31T08:56:33;95385.38;;;24.55;59.66
36828;BME280;22766;48.042;11.192;2022-07-31T08:59:02;95381.47;;;24.69;55.94
36828;BME280;22766;48.042;11.192;2022-07-31T09:01:29;95379.31;;;24.77;55.37
36828;BME280;22766;48.042;11.192;2022-07-31T09:03:58;95377.00;;;25.04;58.20
36828;BME280;22766;48.042;11.192;2022-07-31T09:06:25;95372.47;;;25.39;57.63
36828;BME280;22766;48.042;11.192;2022-07-31T09:08:54;95380.78;;;25.59;51.73
36828;BME280;22766;48.042;11.192;2022-07-31T09:11:22;95370.38;;;25.81;54.20
36828;BME280;22766;48.042;11.192;2022-07-31T09:14:12;95361.50;;;26.04;46.04
36828;BME280;22766;48.042;11.192;2022-07-31T09:16:45;95361.47;;;26.32;46.50
36828;BME280;22766;48.042;11.192;2022-07-31T09:19:13;95366.78;;;26.32;49.42
36828;BME280;22766;48.042;11.192;2022-07-31T09:22:06;95361.00;;;25.90;48.94
36828;BME280;22766;48.042;11.192;2022-07-31T09:24:44;95366.94;;;26.42;53.29
36828;BME280;22766;48.042;11.192;2022-07-31T09:27:11;95362.59;;;26.36;50.53
36828;BME280;22766;48.042;11.192;2022-07-31T09:29:43;95345.69;;;26.53;50.30
36828;BME280;22766;48.042;11.192;2022-07-31T09:32:22;95354.50;;;26.26;48.03
36828;BME280;22766;48.042;11.192;2022-07-31T09:35:13;95354.56;;;26.14;47.33
36828;BME280;22766;48.042;11.192;2022-07-31T09:37:45;95354.97;;;25.78;47.92
36828;BME280;22766;48.042;11.192;2022-07-31T09:40:34;95352.81;;;26.53;51.34
36828;BME280;22766;48.042;11.192;2022-07-31T09:44:00;95348.44;;;26.97;48.95
36828;BME280;22766;48.042;11.192;2022-07-31T09:46:46;95348.78;;;27.05;49.16
36828;BME280;22766;48.042;11.192;2022-07-31T09:49:13;95346.78;;;27.12;46.04
36828;BME280;22766;48.042;11.192;2022-07-31T09:51:45;95348.31;;;27.30;43.58
36828;BME280;22766;48.042;11.192;2022-07-31T09:54:23;95353.38;;;27.31;45.17
36828;BME280;22766;48.042;11.192;2022-07-31T09:57:10;95357.72;;;27.59;43.78
36828;BME280;22766;48.042;11.192;2022-07-31T09:59:43;95355.09;;;27.64;43.14
36828;BME280;22766;48.042;11.192;2022-07-31T10:02:12;95347.97;;;27.91;45.71
36828;BME280;22766;48.042;11.192;2022-07-31T10:04:41;95347.72;;;28.19;42.33
36828;BME280;22766;48.042;11.192;2022-07-31T10:07:13;95352.56;;;28.59;42.28
36828;BME280;22766;48.042;11.192;2022-07-31T10:10:19;95349.09;;;27.95;42.86
36828;BME280;22766;48.042;11.192;2022-07-31T10:13:19;95351.06;;;28.10;43.10
36828;BME280;22766;48.042;11.192;2022-07-31T10:15:47;95345.63;;;27.95;42.09
36828;BME280;22766;48.042;11.192;2022-07-31T10:18:37;95345.59;;;27.68;38.41
36828;BME280;22766;48.042;11.192;2022-07-31T10:21:20;95343.16;;;27.61;42.02
36828;BME280;22766;48.042;11.192;2022-07-31T10:23:59;95346.63;;;27.62;41.53
36828;BME280;22766;48.042;11.192;2022-07-31T10:26:28;95341.13;;;28.27;40.20
36828;BME280;22766;48.042;11.192;2022-07-31T10:29:16;95345.56;;;28.48;40.96
36828;BME280;22766;48.042;11.192;2022-07-31T10:31:45;95341.50;;;28.40;41.44
36828;BME280;22766;48.042;11.192;2022-07-31T10:34:13;95348.03;;;28.54;35.83
36828;BME280;22766;48.042;11.192;2022-07-31T10:37:05;95341.75;;;28.71;33.83
36828;BME280;22766;48.042;11.192;2022-07-31T10:45:11;95342.22;;;29.04;37.34
36828;BME280;22766;48.042;11.192;2022-07-31T10:48:02;95345.00;;;28.78;35.75
36828;BME280;22766;48.042;11.192;2022-07-31T10:51:06;95342.00;;;28.69;36.13
36828;BME280;22766;48.042;11.192;2022-07-31T10:54:10;95333.06;;;28.43;36.87
36828;BME280;22766;48.042;11.192;2022-07-31T10:56:57;95338.91;;;28.14;38.07
36828;BME280;22766;48.042;11.192;2022-07-31T10:59:40;95328.13;;;27.94;38.45
36828;BME280;22766;48.042;11.192;2022-07-31T11:02:13;95330.22;;;28.23;39.22
36828;BME280;22766;48.042;11.192;2022-07-31T11:08:03;95329.25;;;28.03;38.15
36828;BME280;22766;48.042;11.192;2022-07-31T11:10:54;95325.25;;;28.32;37.67
36828;BME280;22766;48.042;11.192;2022-07-31T11:13:53;95325.31;;;28.74;36.05
36828;BME280;22766;48.042;11.192;2022-07-31T11:16:58;95318.97;;;28.80;32.62
36828;BME280;22766;48.042;11.192;2022-07-31T11:19:51;95319.88;;;29.05;39.14
36828;BME280;22766;48.042;11.192;2022-07-31T11:22:18;95324.38;;;29.00;37.08
36828;BME280;22766;48.042;11.192;2022-07-31T11:24:57;95327.34;;;28.62;38.40
36828;BME280;22766;48.042;11.192;2022-07-31T11:27:31;95335.22;;;28.88;37.50
36828;BME280;22766;48.042;11.192;2022-07-31T11:30:05;95323.72;;;28.41;37.59
36828;BME280;22766;48.042;11.192;2022-07-31T11:32:39;95324.97;;;28.60;35.67
36828;BME280;22766;48.042;11.192;2022-07-31T11:35:06;95326.09;;;28.37;36.70
36828;BME280;22766;48.042;11.192;2022-07-31T11:37:32;95316.97;;;28.60;38.02
36828;BME280;22766;48.042;11.192;2022-07-31T11:40:14;95319.25;;;28.83;38.47
36828;BME280;22766;48.042;11.192;2022-07-31T11:42:43;95322.88;;;28.67;39.06
36828;BME280;22766;48.042;11.192;2022-07-31T11:45:12;95322.22;;;28.92;37.28
36828;BME280;22766;48.042;11.192;2022-07-31T11:47:47;95321.91;;;28.83;36.17
36828;BME280;22766;48.042;11.192;2022-07-31T11:50:41;95317.19;;;27.90;37.73
36828;BME280;22766;48.042;11.192;2022-07-31T11:53:08;95314.44;;;27.58;38.09
36828;BME280;22766;48.042;11.192;2022-07-31T11:56:07;95315.84;;;27.93;33.88
36828;BME280;22766;48.042;11.192;2022-07-31T11:58:34;95312.31;;;27.82;36.58
36828;BME280;22766;48.042;11.192;2022-07-31T12:01:03;95306.25;;;28.13;36.46
36828;BME280;22766;48.042;11.192;2022-07-31T12:03:34;95301.50;;;28.94;36.67
36828;BME280;22766;48.042;11.192;2022-07-31T12:06:03;95308.41;;;28.53;35.97
36828;BME280;22766;48.042;11.192;2022-07-31T12:08:30;95299.84;;;28.09;36.25
36828;BME280;22766;48.042;11.192;2022-07-31T12:10:58;95305.66;;;27.80;37.11
36828;BME280;22766;48.042;11.192;2022-07-31T12:13:26;95301.69;;;27.55;37.11
36828;BME280;22766;48.042;11.192;2022-07-31T12:18:20;95297.34;;;27.23;38.26
36828;BME280;22766;48.042;11.192;2022-07-31T12:20:54;95301.66;;;27.07;39.18
36828;BME280;22766;48.042;11.192;2022-07-31T12:23:21;95302.28;;;27.14;37.65
36828;BME280;22766;48.042;11.192;2022-07-31T12:26:07;95299.19;;;27.44;36.67
36828;BME280;22766;48.042;11.192;2022-07-31T12:28:35;95303.47;;;28.30;36.51
36828;BME280;22766;48.042;11.192;2022-07-31T12:31:02;95298.13;;;30.05;31.88
36828;BME280;22766;48.042;11.192;2022-07-31T12:33:40;95292.28;;;31.96;30.59
36828;BME280;22766;48.042;11.192;2022-07-31T12:36:12;95297.56;;;33.40;30.88
36828;BME280;22766;48.042;11.192;2022-07-31T12:38:39;95292.72;;;33.42;26.31
36828;BME280;22766;48.042;11.192;2022-07-31T12:41:13;95286.41;;;33.33;24.27
36828;BME280;22766;48.042;11.192;2022-07-31T12:43:40;95283.19;;;33.97;24.37
36828;BME280;22766;48.042;11.192;2022-07-31T12:46:19;95279.72;;;32.88;26.58
36828;BME280;22766;48.042;11.192;2022-07-31T12:48:46;95278.88;;;33.95;27.55
36828;BME280;22766;48.042;11.192;2022-07-31T12:51:13;95276.47;;;34.13;25.96
36828;BME280;22766;48.042;11.192;2022-07-31T12:53:39;95270.06;;;34.46;27.42
36828;BME280;22766;48.042;11.192;2022-07-31T12:56:10;95270.22;;;34.81;26.50
36828;BME280;22766;48.042;11.192;2022-07-31T12:58:37;95269.53;;;35.03;24.38
36828;BME280;22766;48.042;11.192;2022-07-31T13:01:03;95260.47;;;35.40;23.61
36828;BME280;22766;48.042;11.192;2022-07-31T13:03:30;95257.91;;;35.21;23.07
36828;BME280;22766;48.042;11.192;2022-07-31T13:06:12;95257.22;;;35.29;22.90
36828;BME280;22766;48.042;11.192;2022-07-31T13:08:39;95260.97;;;34.88;24.76
36828;BME280;22766;48.042;11.192;2022-07-31T13:11:06;95256.63;;;35.19;26.23
36828;BME280;22766;48.042;11.192;2022-07-31T13:13:32;95250.44;;;35.32;24.40
36828;BME280;22766;48.042;11.192;2022-07-31T13:15:59;95241.09;;;35.43;24.75
36828;BME280;22766;48.042;11.192;2022-07-31T13:18:26;95244.16;;;35.50;24.06
36828;BME280;22766;48.042;11.192;2022-07-31T13:20:52;95243.47;;;34.90;24.60
36828;BME280;22766;48.042;11.192;2022-07-31T13:23:19;95233.06;;;35.02;23.90
36828;BME280;22766;48.042;11.192;2022-07-31T13:25:46;95238.34;;;35.70;23.28
36828;BME280;22766;48.042;11.192;2022-07-31T13:28:13;95235.19;;;35.54;24.32
36828;BME280;22766;48.042;11.192;2022-07-31T13:30:40;95236.25;;;35.67;23.66
36828;BME280;22766;48.042;11.192;2022-07-31T13:33:07;95233.22;;;35.96;24.18
36828;BME280;22766;48.042;11.192;2022-07-31T13:35:33;95234.03;;;35.83;23.17